createdAt,value
2022-11-28T00:01:33.194Z,0.00
2022-11-28T00:04:02.721Z,0.10
2022-11-28T00:06:30.936Z,0.10
2022-11-28T00:08:59.782Z,-0.10
2022-11-28T00:11:28.474Z,0.00
2022-11-28T00:13:56.890Z,0.00
2022-11-28T00:16:25.880Z,-0.20
2022-11-28T00:18:55.559Z,-0.20
2022-11-28T00:21:25.462Z,-0.20
2022-11-28T00:23:54.139Z,-0.10
2022-11-28T00:26:26.846Z,-0.10
2022-11-28T00:28:55.806Z,-0.20
2022-11-28T00:31:25.681Z,-0.30
2022-11-28T00:33:53.953Z,-0.30
2022-11-28T00:36:22.232Z,-0.30
2022-11-28T00:38:52.546Z,-0.20
2022-11-28T00:41:22.514Z,-0.10
2022-11-28T00:43:51.612Z,-0.10
2022-11-28T00:46:21.483Z,0.00
2022-11-28T00:48:50.356Z,0.00
2022-11-28T00:51:20.402Z,0.20
2022-11-28T00:53:49.625Z,0.20
2022-11-28T00:56:21.183Z,0.10
2022-11-28T00:58:49.907Z,0.10
2022-11-28T01:01:20.710Z,0.20
2022-11-28T01:03:50.673Z,0.20
2022-11-28T01:06:23.152Z,0.50
2022-11-28T01:08:51.596Z,0.60
2022-11-28T01:11:22.477Z,0.80
2022-11-28T01:13:51.152Z,0.60
2022-11-28T01:16:19.230Z,0.60
2022-11-28T01:18:47.232Z,0.80
2022-11-28T01:21:15.253Z,0.80
2022-11-28T01:23:43.294Z,0.90
2022-11-28T01:26:15.985Z,0.90
2022-11-28T01:28:45.352Z,0.90
2022-11-28T01:31:17.008Z,0.80
2022-11-28T01:33:45.287Z,0.80
2022-11-28T01:36:14.907Z,0.70
2022-11-28T01:38:43.277Z,0.60
2022-11-28T01:41:11.694Z,0.50
2022-11-28T01:44:00.337Z,0.40
2022-11-28T01:46:28.462Z,0.60
2022-11-28T01:49:00.232Z,0.70
2022-11-28T01:51:28.617Z,0.60
2022-11-28T01:53:57.314Z,0.70
2022-11-28T01:56:29.003Z,0.60
2022-11-28T01:59:03.990Z,0.40
2022-11-28T02:01:32.558Z,0.30
2022-11-28T02:04:01.024Z,0.10
2022-11-28T02:06:29.289Z,0.10
2022-11-28T02:08:58.908Z,0.20
2022-11-28T02:11:56.553Z,0.30
2022-11-28T02:14:44.363Z,0.60
2022-11-28T02:17:22.103Z,0.60
2022-11-28T02:20:26.069Z,0.80
2022-11-28T02:22:59.845Z,1.00
2022-11-28T02:25:57.380Z,0.90
2022-11-28T02:29:03.306Z,0.90
2022-11-28T02:32:10.985Z,1.10
2022-11-28T02:34:47.361Z,1.20
2022-11-28T02:37:23.703Z,1.20
2022-11-28T02:40:01.996Z,1.20
2022-11-28T02:42:39.821Z,0.80
2022-11-28T02:45:11.540Z,0.60
2022-11-28T02:47:45.242Z,0.60
2022-11-28T02:50:18.213Z,0.60
2022-11-28T02:52:49.084Z,0.70
2022-11-28T02:55:17.925Z,0.80
2022-11-28T02:57:50.421Z,0.90
2022-11-28T03:00:28.146Z,0.60
2022-11-28T03:03:27.292Z,0.60
2022-11-28T03:06:01.328Z,0.50
2022-11-28T03:08:44.787Z,0.60
2022-11-28T03:11:21.094Z,0.60
2022-11-28T03:13:57.320Z,0.70
2022-11-28T03:16:29.782Z,0.70
2022-11-28T03:19:05.615Z,0.80
2022-11-28T03:21:39.751Z,0.60
2022-11-28T03:24:13.633Z,0.30
2022-11-28T03:26:50.174Z,0.50
2022-11-28T03:29:22.848Z,0.40
2022-11-28T03:31:55.722Z,0.40
2022-11-28T03:34:32.422Z,0.60
2022-11-28T03:37:04.545Z,0.70
2022-11-28T03:39:37.132Z,0.20
2022-11-28T03:42:10.548Z,0.30
2022-11-28T03:44:44.135Z,0.50
2022-11-28T03:47:12.520Z,0.10
2022-11-28T03:49:45.846Z,0.00
2022-11-28T03:52:19.600Z,0.10
2022-11-28T03:54:51.962Z,0.10
2022-11-28T03:57:25.759Z,-0.10
2022-11-28T03:59:55.642Z,0.00
2022-11-28T04:02:30.993Z,0.00
2022-11-28T04:05:04.549Z,0.10
2022-11-28T04:07:39.686Z,-0.20
2022-11-28T04:10:14.224Z,-0.20
2022-11-28T04:12:51.762Z,-0.20
2022-11-28T04:15:27.754Z,-0.20
2022-11-28T04:17:59.466Z,0.00
2022-11-28T04:20:34.954Z,0.10
2022-11-28T04:23:08.155Z,0.40
2022-11-28T04:25:39.077Z,0.60
2022-11-28T04:28:12.373Z,0.60
2022-11-28T04:30:43.649Z,0.70
2022-11-28T04:33:14.324Z,0.50
2022-11-28T04:35:47.694Z,0.60
2022-11-28T04:38:16.001Z,0.60
2022-11-28T04:40:48.149Z,0.60
2022-11-28T04:43:21.622Z,0.60
2022-11-28T04:45:54.637Z,0.50
2022-11-28T04:48:23.051Z,0.50
2022-11-28T04:51:00.835Z,0.50
2022-11-28T04:53:36.634Z,0.50
2022-11-28T04:56:09.710Z,0.20
2022-11-28T04:58:41.784Z,-0.10
2022-11-28T05:01:17.114Z,-0.30
2022-11-28T05:03:45.357Z,-0.20
2022-11-28T05:06:25.346Z,-0.20
2022-11-28T05:08:53.343Z,-0.50
2022-11-28T05:11:21.424Z,-0.50
2022-11-28T05:13:49.601Z,-0.60
2022-11-28T05:16:18.320Z,-0.40
2022-11-28T05:18:46.812Z,-0.30
2022-11-28T05:21:16.431Z,0.00
2022-11-28T05:23:46.376Z,0.00
2022-11-28T05:26:17.325Z,0.40
2022-11-28T05:28:46.268Z,0.30
2022-11-28T05:31:15.265Z,0.30
2022-11-28T05:33:43.325Z,0.10
2022-11-28T05:36:14.334Z,0.30
2022-11-28T05:38:44.289Z,0.10
2022-11-28T05:41:19.338Z,0.30
2022-11-28T05:43:47.301Z,0.10
2022-11-28T05:46:15.242Z,0.00
2022-11-28T05:48:43.353Z,0.10
2022-11-28T05:51:11.340Z,0.10
2022-11-28T05:53:39.322Z,0.00
2022-11-28T05:56:09.674Z,0.20
2022-11-28T05:58:37.780Z,0.30
2022-11-28T06:01:13.675Z,-0.10
2022-11-28T06:03:41.810Z,-0.20
2022-11-28T06:06:13.885Z,-0.10
2022-11-28T06:08:42.322Z,0.10
2022-11-28T06:11:14.735Z,0.20
2022-11-28T06:13:42.937Z,0.10
2022-11-28T06:16:11.858Z,0.20
2022-11-28T06:18:40.377Z,0.00
2022-11-28T06:21:10.433Z,0.10
2022-11-28T06:23:39.321Z,0.00
2022-11-28T06:26:09.414Z,0.20
2022-11-28T06:28:39.350Z,0.10
2022-11-28T06:31:11.868Z,0.20
2022-11-28T06:33:39.933Z,0.00
2022-11-28T06:36:09.157Z,0.20
2022-11-28T06:38:37.501Z,0.00
2022-11-28T06:41:08.054Z,0.20
2022-11-28T06:43:36.130Z,0.30
2022-11-28T06:46:06.021Z,0.40
2022-11-28T06:48:34.012Z,0.30
2022-11-28T06:51:06.929Z,0.40
2022-11-28T06:53:35.869Z,0.10
2022-11-28T06:56:07.643Z,0.30
2022-11-28T06:58:36.333Z,0.20
2022-11-28T07:01:11.623Z,0.20
2022-11-28T07:03:40.482Z,0.40
2022-11-28T07:06:09.961Z,0.40
2022-11-28T07:08:38.142Z,0.70
2022-11-28T07:11:11.282Z,0.60
2022-11-28T07:13:39.403Z,0.90
2022-11-28T07:16:09.961Z,0.90
2022-11-28T07:18:37.930Z,1.10
2022-11-28T07:21:06.276Z,1.00
2022-11-28T07:23:34.270Z,0.90
2022-11-28T07:26:03.239Z,0.80
2022-11-28T07:28:32.631Z,0.80
2022-11-28T07:31:02.868Z,0.80
2022-11-28T07:33:32.588Z,0.50
2022-11-28T07:36:04.514Z,0.10
2022-11-28T07:38:33.004Z,0.20
2022-11-28T07:41:05.033Z,0.40
2022-11-28T07:43:32.978Z,0.60
2022-11-28T07:46:01.790Z,0.70
2022-11-28T07:48:29.843Z,0.80
2022-11-28T07:50:59.138Z,1.00
2022-11-28T07:53:27.192Z,1.00
2022-11-28T07:55:55.156Z,1.10
2022-11-28T07:58:23.465Z,0.90
2022-11-28T08:00:51.411Z,1.00
2022-11-28T08:03:19.337Z,1.00
2022-11-28T08:05:49.545Z,1.00
2022-11-28T08:08:19.054Z,1.10
2022-11-28T08:10:47.455Z,1.20
2022-11-28T08:13:15.490Z,0.90
2022-11-28T08:15:43.508Z,1.00
2022-11-28T08:18:11.606Z,1.30
2022-11-28T08:20:39.652Z,1.10
2022-11-28T08:23:07.693Z,1.10
2022-11-28T08:25:36.993Z,1.20
2022-11-28T08:28:05.493Z,1.40
2022-11-28T08:30:33.470Z,1.00
2022-11-28T08:33:01.451Z,0.90
2022-11-28T08:35:30.065Z,0.90
2022-11-28T08:38:01.810Z,1.20
2022-11-28T08:40:30.159Z,1.00
2022-11-28T08:43:00.999Z,1.00
2022-11-28T08:45:29.005Z,1.20
2022-11-28T08:47:57.014Z,1.10
2022-11-28T08:50:25.045Z,0.60
2022-11-28T08:52:52.985Z,0.50
2022-11-28T08:55:25.123Z,0.90
2022-11-28T08:58:01.116Z,0.80
2022-11-28T09:00:29.064Z,1.10
2022-11-28T09:02:56.966Z,1.20
2022-11-28T09:05:24.901Z,1.30
2022-11-28T09:07:55.574Z,1.00
2022-11-28T09:10:24.658Z,0.90
2022-11-28T09:12:52.645Z,0.90
2022-11-28T09:15:22.000Z,1.10
2022-11-28T09:17:49.939Z,1.20
2022-11-28T09:20:17.941Z,1.30
2022-11-28T09:22:47.212Z,1.50
2022-11-28T09:25:15.948Z,1.50
2022-11-28T09:27:43.956Z,1.60
2022-11-28T09:30:12.629Z,1.60
2022-11-28T09:32:41.972Z,1.30
2022-11-28T09:35:10.402Z,1.20
2022-11-28T09:37:38.333Z,0.90
2022-11-28T09:40:15.428Z,0.80
2022-11-28T09:42:44.971Z,1.10
2022-11-28T09:45:16.644Z,1.40
2022-11-28T09:47:49.802Z,1.20
2022-11-28T09:50:22.279Z,1.10
2022-11-28T09:52:56.777Z,1.30
2022-11-28T09:55:34.362Z,1.50
2022-11-28T09:58:06.361Z,1.60
2022-11-28T10:00:37.395Z,1.40
2022-11-28T10:03:42.400Z,1.60
2022-11-28T10:06:19.085Z,1.70
2022-11-28T10:09:09.570Z,1.80
2022-11-28T10:11:49.421Z,2.00
2022-11-28T10:14:33.067Z,2.10
2022-11-28T10:17:08.280Z,1.80
2022-11-28T10:19:57.105Z,1.80
2022-11-28T10:22:32.455Z,1.60
2022-11-28T10:25:07.301Z,1.40
2022-11-28T10:27:36.442Z,1.50
2022-11-28T10:30:08.534Z,1.60
2022-11-28T10:32:40.791Z,1.70
2022-11-28T10:35:27.874Z,1.80
2022-11-28T10:37:56.423Z,1.60
2022-11-28T10:40:32.313Z,1.50
2022-11-28T10:43:04.287Z,1.60
2022-11-28T10:45:44.923Z,1.40
2022-11-28T10:48:40.050Z,1.40
2022-11-28T10:51:20.951Z,1.70
2022-11-28T10:53:55.481Z,1.70
2022-11-28T10:56:33.963Z,2.00
2022-11-28T10:59:09.002Z,1.90
2022-11-28T11:01:40.374Z,2.20
2022-11-28T11:04:18.001Z,2.30
2022-11-28T11:07:08.151Z,2.30
2022-11-28T11:09:37.086Z,2.20
2022-11-28T11:12:07.548Z,2.40
2022-11-28T11:14:39.760Z,2.30
2022-11-28T11:17:08.169Z,2.30
2022-11-28T11:19:37.714Z,2.30
2022-11-28T11:22:19.045Z,2.40
2022-11-28T11:25:04.738Z,2.40
2022-11-28T11:27:33.246Z,2.50
2022-11-28T11:30:01.418Z,2.40
2022-11-28T11:32:31.249Z,2.40
2022-11-28T11:35:00.628Z,2.50
2022-11-28T11:37:35.930Z,2.30
2022-11-28T11:40:18.378Z,2.50
2022-11-28T11:42:54.557Z,2.70
2022-11-28T11:45:30.000Z,2.60
2022-11-28T11:47:58.959Z,2.50
2022-11-28T11:50:29.625Z,2.40
2022-11-28T11:53:14.898Z,2.30
2022-11-28T11:55:48.938Z,2.20
2022-11-28T11:58:21.458Z,2.40
2022-11-28T12:00:49.678Z,2.40
2022-11-28T12:03:27.968Z,2.40
2022-11-28T12:06:13.848Z,2.50
2022-11-28T12:08:50.901Z,2.70
2022-11-28T12:11:23.753Z,2.80
2022-11-28T12:13:52.493Z,2.80
2022-11-28T12:16:40.740Z,3.00
2022-11-28T12:19:20.345Z,2.70
2022-11-28T12:22:06.927Z,2.40
2022-11-28T12:24:46.917Z,2.70
2022-11-28T12:27:26.565Z,2.50
2022-11-28T12:30:05.705Z,2.60
2022-11-28T12:32:44.694Z,2.70
2022-11-28T12:35:28.564Z,2.80
2022-11-28T12:38:12.472Z,2.90
2022-11-28T12:40:53.406Z,2.80
2022-11-28T12:43:34.426Z,2.90
2022-11-28T12:46:11.910Z,2.80
2022-11-28T12:48:53.671Z,2.80
2022-11-28T12:51:29.863Z,2.90
2022-11-28T12:54:11.198Z,2.90
2022-11-28T12:56:51.701Z,3.10
2022-11-28T12:59:28.291Z,3.10
2022-11-28T13:02:11.721Z,3.00
2022-11-28T13:05:00.086Z,3.00
2022-11-28T13:07:37.295Z,3.00
2022-11-28T13:10:11.650Z,3.00
2022-11-28T13:12:51.947Z,3.10
2022-11-28T13:15:29.786Z,3.10
2022-11-28T13:18:03.179Z,3.20
2022-11-28T13:20:38.889Z,3.10
2022-11-28T13:23:17.103Z,3.10
2022-11-28T13:25:52.816Z,3.00
2022-11-28T13:28:29.237Z,3.10
2022-11-28T13:31:02.259Z,2.90
2022-11-28T13:33:42.187Z,3.00
2022-11-28T13:39:14.339Z,3.10
2022-11-28T13:42:21.520Z,3.10
2022-11-28T13:44:43.469Z,3.10
2022-11-28T13:47:27.632Z,3.10
2022-11-28T13:50:25.409Z,3.00
2022-11-28T13:53:00.047Z,3.10
2022-11-28T13:55:44.709Z,3.10
2022-11-28T13:58:19.279Z,3.10
2022-11-28T14:01:09.838Z,2.90
2022-11-28T14:03:46.383Z,3.10
2022-11-28T14:06:19.152Z,3.30
2022-11-28T14:08:50.094Z,3.40
2022-11-28T14:12:07.765Z,3.30
2022-11-28T14:14:58.143Z,3.20
2022-11-28T14:17:41.000Z,3.30
2022-11-28T14:20:22.020Z,3.20
2022-11-28T14:23:04.321Z,3.20
2022-11-28T14:25:33.647Z,3.20
2022-11-28T14:28:04.143Z,3.20
2022-11-28T14:30:35.174Z,3.20
2022-11-28T14:33:07.304Z,3.20
2022-11-28T14:36:05.627Z,3.20
2022-11-28T14:38:47.788Z,3.20
2022-11-28T14:41:16.838Z,3.30
2022-11-28T14:43:46.367Z,3.20
2022-11-28T14:46:26.742Z,3.20
2022-11-28T14:49:20.073Z,3.20
2022-11-28T14:52:30.876Z,3.20
2022-11-28T14:54:55.943Z,3.10
2022-11-28T14:57:27.253Z,3.20
2022-11-28T14:59:57.686Z,3.30
2022-11-28T15:02:39.133Z,3.20
2022-11-28T15:05:19.687Z,3.20
2022-11-28T15:07:59.093Z,3.10
2022-11-28T15:10:38.380Z,3.10
2022-11-28T15:13:23.111Z,2.90
2022-11-28T15:15:53.565Z,3.00
2022-11-28T15:18:24.306Z,3.00
2022-11-28T15:20:58.643Z,3.00
2022-11-28T15:23:30.061Z,2.90
2022-11-28T15:26:00.901Z,2.80
2022-11-28T15:28:32.234Z,2.80
2022-11-28T15:31:02.391Z,2.60
2022-11-28T15:33:31.589Z,2.70
2022-11-28T15:36:10.576Z,2.70
2022-11-28T15:38:39.330Z,2.70
2022-11-28T15:41:07.399Z,2.80
2022-11-28T15:43:38.440Z,2.70
2022-11-28T15:46:07.980Z,2.80
2022-11-28T15:48:40.173Z,3.00
2022-11-28T15:51:22.868Z,3.10
2022-11-28T15:53:50.839Z,2.80
2022-11-28T15:56:19.098Z,2.80
2022-11-28T15:58:52.350Z,2.70
2022-11-28T16:01:21.853Z,2.50
2022-11-28T16:03:55.261Z,2.30
2022-11-28T16:06:27.457Z,2.30
2022-11-28T16:08:57.426Z,2.50
2022-11-28T16:11:28.173Z,2.50
2022-11-28T16:13:58.672Z,2.50
2022-11-28T16:16:29.430Z,2.50
2022-11-28T16:18:59.817Z,2.40
2022-11-28T16:21:32.068Z,2.20
2022-11-28T16:24:01.099Z,2.00
2022-11-28T16:26:33.952Z,2.10
2022-11-28T16:29:11.410Z,1.80
2022-11-28T16:31:39.382Z,1.90
2022-11-28T16:34:12.963Z,1.80
2022-11-28T16:36:45.760Z,2.10
2022-11-28T16:39:17.161Z,2.20
2022-11-28T16:41:51.860Z,2.10
2022-11-28T16:44:22.275Z,2.10
2022-11-28T16:46:53.018Z,2.20
2022-11-28T16:49:36.240Z,2.20
2022-11-28T16:52:45.565Z,2.40
2022-11-28T16:55:39.526Z,2.20
2022-11-28T16:58:16.817Z,2.20
2022-11-28T17:00:50.044Z,2.20
2022-11-28T17:03:49.484Z,2.20
2022-11-28T17:06:27.244Z,2.40
2022-11-28T17:08:56.562Z,2.40
2022-11-28T17:11:28.285Z,2.30
2022-11-28T17:13:57.880Z,2.10
2022-11-28T17:16:28.020Z,1.80
2022-11-28T17:18:55.994Z,1.60
2022-11-28T17:21:32.935Z,1.50
2022-11-28T17:24:02.992Z,1.30
2022-11-28T17:26:31.482Z,1.40
2022-11-28T17:28:59.777Z,1.20
2022-11-28T17:31:27.797Z,1.20
2022-11-28T17:33:55.767Z,1.50
2022-11-28T17:36:23.684Z,1.50
2022-11-28T17:38:51.751Z,1.50
2022-11-28T17:41:23.198Z,1.50
2022-11-28T17:43:51.149Z,1.50
2022-11-28T17:46:21.360Z,1.70
2022-11-28T17:48:49.458Z,1.60
2022-11-28T17:51:17.407Z,1.60
2022-11-28T17:53:46.634Z,1.70
2022-11-28T17:56:14.868Z,1.80
2022-11-28T17:58:45.409Z,1.80
2022-11-28T18:01:16.794Z,1.70
2022-11-28T18:03:44.962Z,1.60
2022-11-28T18:06:17.482Z,1.30
2022-11-28T18:08:46.405Z,1.30
2022-11-28T18:11:15.621Z,1.40
2022-11-28T18:13:45.782Z,1.40
2022-11-28T18:16:16.065Z,1.50
2022-11-28T18:18:44.291Z,1.60
2022-11-28T18:21:13.160Z,1.60
2022-11-28T18:23:42.061Z,1.60
2022-11-28T18:26:11.630Z,1.50
2022-11-28T18:28:39.856Z,1.40
2022-11-28T18:31:13.718Z,1.50
2022-11-28T18:33:41.813Z,1.70
2022-11-28T18:36:12.159Z,1.80
2022-11-28T18:38:40.270Z,1.70
2022-11-28T18:41:10.465Z,1.80
2022-11-28T18:43:39.180Z,1.80
2022-11-28T18:46:12.024Z,1.80
2022-11-28T18:48:43.671Z,1.90
2022-11-28T18:51:13.149Z,1.80
2022-11-28T18:53:41.698Z,1.80
2022-11-28T18:56:10.475Z,1.70
2022-11-28T18:58:41.118Z,1.70
2022-11-28T19:01:13.994Z,1.60
2022-11-28T19:03:44.566Z,1.60
2022-11-28T19:06:13.474Z,1.50
2022-11-28T19:08:41.733Z,1.40
2022-11-28T19:11:14.326Z,1.50
2022-11-28T19:13:42.990Z,1.50
2022-11-28T19:16:12.937Z,1.60
2022-11-28T19:18:42.986Z,1.60
2022-11-28T19:21:13.269Z,1.70
2022-11-28T19:23:41.291Z,1.80
2022-11-28T19:26:11.837Z,1.50
2022-11-28T19:28:41.374Z,1.30
2022-11-28T19:31:12.382Z,1.50
2022-11-28T19:33:40.430Z,1.60
2022-11-28T19:36:12.019Z,1.60
2022-11-28T19:38:40.677Z,1.50
2022-11-28T19:41:09.097Z,1.40
2022-11-28T19:43:37.329Z,1.40
2022-11-28T19:46:06.036Z,1.30
2022-11-28T19:48:35.581Z,1.40
2022-11-28T19:51:05.326Z,1.50
2022-11-28T19:53:37.477Z,1.50
2022-11-28T19:56:06.591Z,1.50
2022-11-28T19:58:36.672Z,1.40
2022-11-28T20:01:06.360Z,1.30
2022-11-28T20:03:35.073Z,1.10
2022-11-28T20:06:03.629Z,1.10
2022-11-28T20:08:32.274Z,1.20
2022-11-28T20:11:08.354Z,1.40
2022-11-28T20:13:36.371Z,1.40
2022-11-28T20:16:05.776Z,1.40
2022-11-28T20:18:34.058Z,1.40
2022-11-28T20:21:06.878Z,1.00
2022-11-28T20:23:34.953Z,1.10
2022-11-28T20:26:05.726Z,1.00
2022-11-28T20:28:35.205Z,1.00
2022-11-28T20:31:03.914Z,1.10
2022-11-28T20:33:32.087Z,1.20
2022-11-28T20:36:07.501Z,1.30
2022-11-28T20:38:35.621Z,1.30
2022-11-28T20:41:07.041Z,1.00
2022-11-28T20:43:37.747Z,1.20
2022-11-28T20:46:07.962Z,1.30
2022-11-28T20:48:36.073Z,1.30
2022-11-28T20:51:04.386Z,0.90
2022-11-28T20:53:32.744Z,0.90
2022-11-28T20:56:02.747Z,1.00
2022-11-28T20:58:32.865Z,1.00
2022-11-28T21:01:00.960Z,0.90
2022-11-28T21:03:29.233Z,1.00
2022-11-28T21:06:01.032Z,1.10
2022-11-28T21:08:31.237Z,1.20
2022-11-28T21:10:59.197Z,1.20
2022-11-28T21:13:27.129Z,1.20
2022-11-28T21:15:56.436Z,1.20
2022-11-28T21:18:24.376Z,1.30
2022-11-28T21:20:52.854Z,1.40
2022-11-28T21:23:20.778Z,1.40
2022-11-28T21:25:48.692Z,1.30
2022-11-28T21:28:16.671Z,1.20
2022-11-28T21:30:47.163Z,1.00
2022-11-28T21:33:16.469Z,1.10
2022-11-28T21:35:44.425Z,1.00
2022-11-28T21:38:13.049Z,0.90
2022-11-28T21:40:41.146Z,0.80
2022-11-28T21:43:09.068Z,0.70
2022-11-28T21:45:37.119Z,0.70
2022-11-28T21:48:05.365Z,0.90
2022-11-28T21:50:34.676Z,1.10
2022-11-28T21:53:02.674Z,1.20
2022-11-28T21:55:30.688Z,1.10
2022-11-28T21:57:58.631Z,0.90
2022-11-28T22:00:52.012Z,1.10
2022-11-28T22:03:14.669Z,1.10
2022-11-28T22:05:44.033Z,1.00
2022-11-28T22:08:12.005Z,0.90
2022-11-28T22:10:39.992Z,0.80
2022-11-28T22:13:08.044Z,0.80
2022-11-28T22:15:36.039Z,0.70
2022-11-28T22:18:04.028Z,0.40
2022-11-28T22:20:31.965Z,0.20
2022-11-28T22:23:01.255Z,0.50
2022-11-28T22:25:29.470Z,0.70
2022-11-28T22:27:57.609Z,0.60
2022-11-28T22:30:25.670Z,0.60
2022-11-28T22:32:53.669Z,0.60
2022-11-28T22:35:21.778Z,0.60
2022-11-28T22:37:49.789Z,0.30
2022-11-28T22:40:19.291Z,0.50
2022-11-28T22:42:47.210Z,0.50
2022-11-28T22:45:15.281Z,0.70
2022-11-28T22:47:43.249Z,0.50
2022-11-28T22:50:11.758Z,0.70
2022-11-28T22:52:39.705Z,0.70
2022-11-28T22:55:08.131Z,0.90
2022-11-28T22:57:37.542Z,1.10
2022-11-28T23:00:08.649Z,1.20
2022-11-28T23:02:36.776Z,1.30
2022-11-28T23:05:05.307Z,1.30
2022-11-28T23:07:33.294Z,1.10
2022-11-28T23:10:01.265Z,1.20
2022-11-28T23:12:29.277Z,1.30
2022-11-28T23:14:58.598Z,1.30
2022-11-28T23:17:26.569Z,1.30
2022-11-28T23:19:54.564Z,1.30
2022-11-28T23:22:22.486Z,1.20
2022-11-28T23:24:50.436Z,0.90
2022-11-28T23:27:18.377Z,1.00
2022-11-28T23:29:46.346Z,1.10
2022-11-28T23:32:15.772Z,0.90
2022-11-28T23:34:43.944Z,0.90
2022-11-28T23:37:12.016Z,1.00
2022-11-28T23:39:39.948Z,1.10
2022-11-28T23:42:07.890Z,1.20
2022-11-28T23:44:35.887Z,1.30
2022-11-28T23:47:03.833Z,1.30
2022-11-28T23:49:33.169Z,1.30
2022-11-28T23:52:01.137Z,1.30
2022-11-28T23:54:29.061Z,0.90
2022-11-28T23:56:57.061Z,0.80
2022-11-28T23:59:24.967Z,0.80
